Airfield :
LOGIN :

Register | Disclaimer

   EN    FR    IT 

 










Legend :    VFR   Marginal VFR   IFR   Intensive IFR   Very Intensive IFR
Visi :
Ceiling :
>= 8 km
>= 3000ft
5 to 8 km
1000 to 3000 ft
1500m to 5 km
500 to 1000 ft
800 to 1500m
200 to 500 ft
< 800m
< 200 ft
Symbols :   Thunderstorms  Fog  Heavy snow  Heavy precipitations  Wind > 20 kt
SIGMETs :     Misc.  Thunderstorms  Icing  Turbulence  Mountain Waves  Volcanic Ashes






- Airport Elevation : 154 ft
- IATA code : SZZ


EPSC - Szczecin Goleniow

CURRENT METAR :
  • 231130Z 26011KT 7000 -RA FEW003 SCT016 BKN029 06/03 Q1005

EXPIRED METARs :
  • 231100Z 22008KT 190V260 9999 -RA FEW006 SCT030 BKN035 07/02 Q1006
  • 231030Z 22007KT 190V260 9999 FEW031 SCT039 BKN047 07/01 Q1007
  • 231000Z 24008KT 210V270 9999 FEW032 07/01 Q1007
  • 230930Z 25009KT 200V270 9999 FEW033 07/01 Q1008
  • 230900Z 24009KT 220V280 9999 FEW038 07/01 Q1008

TAF TAF EPSC
Valid from the 23 at 12:00 until the 24 at 12:00 UTC


231130Z 2312/2412 26012KT 9999 -RA BKN020
TEMPO 2312/2318 4000 RA BKN007 BKN012
PROB40
TEMPO 2312/2318 25015G25KT 2900 RASN BKN004
TEMPO 2318/2321 28020G32KT 4000 RA BKN004 BKN009
TEMPO 2321/2406 28022G35KT SHRA SCT007 BKN012CB
PROB30
TEMPO 2321/2401 3000 SHGS
TEMPO 2406/2412 27018G29KT



MET'MAP, your aeronautical weather chart ! - Copyright ORBIFLY December 2007 - Disclaimer

ORBIFLY MET'MAP TEAM :

Programming & Development : Alexandra Zaïnal
Concept & original design : Baudouin d'Aumeries
Assistance for programming : Marc-Olivier Méhu
Technical & hardware support : Manuel Goepfert

Contact : metmap@orbifly.com




SOURCES & CREDITS :

   NOAA